Time;durP1;ratioP1;P1;durP2;ratioP2;P2;SDS_P1;SDS_P2;PMS_P1;PMS_P2;Temp;Humidity;BMP_temperature;BMP_pressure;BME280_temperature;BME280_humidity;BME280_pressure;Samples;Min_cycle;Max_cycle;Signal;HPM_P1;HPM_P2
2021/06/07 00:02:27;;;;;;;26.13;24.58;;;13.30;99.90;;;;;;5091935;28;20016;-48
2021/06/07 00:04:55;;;;;;;24.98;23.50;;;13.40;99.90;;;;;;5093190;28;20032;-50
2021/06/07 00:07:22;;;;;;;24.67;23.30;;;13.50;99.90;;;;;;5093137;28;20420;-49
2021/06/07 00:09:49;;;;;;;24.67;23.20;;;13.50;99.90;;;;;;5093215;28;20511;-52
2021/06/07 00:12:18;;;;;;;23.38;22.08;;;13.50;99.90;;;;;;5093078;28;20020;-51
2021/06/07 00:14:45;;;;;;;23.75;22.25;;;13.50;99.90;;;;;;5092886;28;20102;-52
2021/06/07 00:17:13;;;;;;;24.20;22.88;;;13.60;99.90;;;;;;5092944;28;20028;-51
2021/06/07 00:19:43;;;;;;;23.15;21.83;;;13.80;99.90;;;;;;5092881;28;20016;-49
2021/06/07 00:22:11;;;;;;;22.73;21.52;;;13.80;99.90;;;;;;5092916;28;20492;-48
2021/06/07 00:24:39;;;;;;;21.52;20.42;;;13.90;99.90;;;;;;5092865;28;20489;-46
2021/06/07 00:27:07;;;;;;;22.10;20.80;;;14.00;99.90;;;;;;5092826;28;20019;-50
2021/06/07 00:29:35;;;;;;;22.65;21.13;;;14.10;99.90;;;;;;5092979;28;20423;-50
2021/06/07 00:32:02;;;;;;;21.83;20.40;;;14.20;99.90;;;;;;5092768;28;20021;-51
2021/06/07 00:34:29;;;;;;;20.60;19.50;;;14.30;99.90;;;;;;5092766;28;20024;-51
2021/06/07 00:36:57;;;;;;;19.27;18.20;;;14.30;99.90;;;;;;5092548;28;20043;-47
2021/06/07 00:39:24;;;;;;;19.85;18.85;;;14.50;99.90;;;;;;5092506;28;20020;-48
2021/06/07 00:41:51;;;;;;;19.90;18.77;;;14.70;99.90;;;;;;5092529;28;20020;-47
2021/06/07 00:44:22;;;;;;;19.45;18.35;;;14.70;99.90;;;;;;5092378;28;20131;-47
2021/06/07 00:46:50;;;;;;;18.73;17.73;;;14.90;99.90;;;;;;5092563;28;20103;-48
2021/06/07 00:49:18;;;;;;;17.63;16.83;;;14.80;99.90;;;;;;5092398;28;20023;-51
2021/06/07 00:51:47;;;;;;;17.48;16.58;;;14.90;99.90;;;;;;5092721;28;20023;-48
2021/06/07 00:54:16;;;;;;;17.58;16.67;;;15.20;99.90;;;;;;5095268;28;20024;-49
2021/06/07 00:56:44;;;;;;;17.10;16.20;;;15.40;99.90;;;;;;5096373;28;20058;-49
2021/06/07 00:59:12;;;;;;;15.95;15.15;;;15.50;99.90;;;;;;5096408;28;20020;-49
2021/06/07 01:01:40;;;;;;;15.93;15.13;;;15.70;99.90;;;;;;5096215;28;20115;-50
2021/06/07 01:04:08;;;;;;;15.02;14.32;;;15.80;99.90;;;;;;5096067;28;20127;-51
2021/06/07 01:06:36;;;;;;;15.18;14.27;;;15.80;99.90;;;;;;5096160;28;20024;-51
2021/06/07 01:09:06;;;;;;;15.10;14.20;;;15.80;99.90;;;;;;5096074;28;20039;-48
2021/06/07 01:11:36;;;;;;;13.80;13.15;;;15.70;99.90;;;;;;5096219;28;20012;-52
2021/06/07 01:14:04;;;;;;;13.55;12.75;;;15.80;99.90;;;;;;5096154;28;20024;-51
2021/06/07 01:16:32;;;;;;;12.65;11.98;;;15.70;99.90;;;;;;5096090;28;20024;-48
2021/06/07 01:19:00;;;;;;;13.07;12.20;;;16.00;99.90;;;;;;5095915;28;20016;-49
2021/06/07 01:21:28;;;;;;;12.40;11.70;;;16.10;99.90;;;;;;5095910;28;20131;-51
2021/06/07 01:23:57;;;;;;;12.88;12.18;;;16.30;99.90;;;;;;5094624;28;20518;-55
2021/06/07 01:26:26;;;;;;;12.82;12.02;;;16.40;99.90;;;;;;5095725;28;20012;-51
2021/06/07 01:28:55;;;;;;;11.35;10.65;;;16.60;99.90;;;;;;5095783;28;20019;-50
2021/06/07 01:31:24;;;;;;;10.88;10.27;;;16.60;99.90;;;;;;5095798;28;20085;-50
2021/06/07 01:33:53;;;;;;;10.70;10.05;;;16.80;99.90;;;;;;5095750;28;20028;-46
2021/06/07 01:36:21;;;;;;;10.85;10.05;;;17.00;99.90;;;;;;5094330;28;20035;-50
2021/06/07 01:38:49;;;;;;;11.32;10.73;;;17.10;99.90;;;;;;5095586;28;20031;-47
2021/06/07 01:41:18;;;;;;;10.15;9.65;;;17.30;99.90;;;;;;5095666;28;20024;-51
2021/06/07 01:43:46;;;;;;;10.05;9.55;;;17.30;99.90;;;;;;5095308;28;20032;-49
2021/06/07 01:46:13;;;;;;;9.40;8.95;;;17.50;99.90;;;;;;5095454;28;20081;-47
2021/06/07 01:48:41;;;;;;;8.95;8.43;;;17.50;99.90;;;;;;5095516;28;20055;-51
2021/06/07 01:51:09;;;;;;;9.13;8.73;;;17.50;99.90;;;;;;5095245;28;20024;-46
2021/06/07 01:53:38;;;;;;;8.98;8.45;;;17.50;99.90;;;;;;5095273;28;20027;-51
2021/06/07 01:56:07;;;;;;;8.40;7.78;;;17.60;99.90;;;;;;5094071;28;20037;-50
2021/06/07 01:58:36;;;;;;;7.03;6.70;;;17.80;99.90;;;;;;5095195;28;20027;-51
2021/06/07 02:01:16;;;;;;;6.82;6.53;;;18.00;99.90;;;;;;5093874;28;20496;-52
2021/06/07 02:03:43;;;;;;;;;;;17.90;99.90;;;;;;5094877;28;20032;-53
2021/06/07 02:06:14;;;;;;;7.28;6.78;;;17.90;99.90;;;;;;5095145;28;19911;-51
2021/06/07 02:08:43;;;;;;;6.43;5.55;;;18.00;99.90;;;;;;5095234;28;20020;-51
2021/06/07 02:11:17;;;;;;;5.30;5.00;;;18.00;99.90;;;;;;5094870;28;20557;-49
2021/06/07 02:13:49;;;;;;;5.57;5.38;;;18.30;99.90;;;;;;5094910;28;20099;-51
2021/06/07 02:16:22;;;;;;;5.10;4.90;;;18.50;99.70;;;;;;5094848;28;20060;-52
2021/06/07 02:18:50;;;;;;;5.22;4.82;;;18.40;99.20;;;;;;5093524;28;20047;-49
2021/06/07 02:21:21;;;;;;;5.78;5.47;;;18.50;99.00;;;;;;5095036;28;20099;-49
2021/06/07 02:23:50;;;;;;;5.28;5.00;;;18.30;99.40;;;;;;5093248;28;20457;-52
2021/06/07 02:26:17;;;;;;;5.10;4.90;;;18.40;99.40;;;;;;5094527;28;20020;-54
2021/06/07 02:29:09;;;;;;;5.28;4.88;;;18.50;99.00;;;;;;5094555;28;20028;-54
2021/06/07 02:31:37;;;;;;;4.93;4.60;;;18.70;98.40;;;;;;5085565;28;20365;-53
2021/06/07 02:34:13;;;;;;;4.60;4.30;;;19.00;98.20;;;;;;5094849;28;20099;-54
2021/06/07 02:36:43;;;;;;;4.80;4.40;;;18.90;98.00;;;;;;5094492;28;20031;-54
2021/06/07 02:39:13;;;;;;;4.85;4.53;;;19.10;98.00;;;;;;5094663;28;20050;-54
2021/06/07 02:41:41;;;;;;;;;;;19.10;97.00;;;;;;5094862;28;20028;-49
2021/06/07 02:44:09;;;;;;;4.95;4.53;;;19.10;96.10;;;;;;5094079;28;19912;-56
2021/06/07 02:46:36;;;;;;;4.55;4.00;;;19.20;96.30;;;;;;5094416;28;20031;-52
2021/06/07 02:49:04;;;;;;;3.70;3.60;;;19.30;95.10;;;;;;5094315;28;20013;-56
2021/06/07 02:51:31;;;;;;;3.50;3.40;;;19.20;94.00;;;;;;5094425;28;20500;-51
2021/06/07 02:53:59;;;;;;;4.00;3.80;;;19.10;93.10;;;;;;5094379;28;20055;-54
2021/06/07 02:56:26;;;;;;;3.40;3.30;;;19.10;93.50;;;;;;5094215;28;20024;-53
2021/06/07 02:58:57;;;;;;;3.80;3.50;;;19.10;93.50;;;;;;5094239;28;20388;-55
2021/06/07 03:01:24;;;;;;;4.18;3.97;;;19.00;93.20;;;;;;5092906;28;20039;-54
2021/06/07 03:03:52;;;;;;;3.80;3.60;;;19.00;93.60;;;;;;5092565;28;20028;-53
2021/06/07 03:06:19;;;;;;;4.30;4.10;;;19.10;94.30;;;;;;5094017;28;20464;-50
2021/06/07 03:08:46;;;;;;;3.67;3.55;;;19.30;94.00;;;;;;5093913;28;20486;-49
2021/06/07 03:11:14;;;;;;;3.85;3.75;;;19.40;93.20;;;;;;5093969;28;20481;-50
2021/06/07 03:13:42;;;;;;;4.18;3.90;;;19.50;93.70;;;;;;5093903;28;20484;-51
2021/06/07 03:16:11;;;;;;;3.78;3.67;;;19.60;92.50;;;;;;5093849;28;20031;-49
2021/06/07 03:18:39;;;;;;;3.42;3.33;;;19.60;92.00;;;;;;5093750;28;20024;-53
2021/06/07 03:21:07;;;;;;;3.70;3.60;;;19.50;91.80;;;;;;5093670;28;20161;-50
2021/06/07 03:23:37;;;;;;;4.30;4.10;;;19.60;90.60;;;;;;5093574;28;20016;-52
2021/06/07 03:26:06;;;;;;;4.47;4.20;;;19.50;91.30;;;;;;5093829;28;20024;-51
2021/06/07 03:28:34;;;;;;;4.50;4.30;;;19.50;91.50;;;;;;5093618;28;20027;-52
2021/06/07 03:31:02;;;;;;;4.25;4.05;;;19.50;91.20;;;;;;5093567;28;20096;-53
2021/06/07 03:33:29;;;;;;;4.35;4.25;;;19.50;90.40;;;;;;5093531;28;20020;-51
2021/06/07 03:35:58;;;;;;;4.30;4.10;;;19.40;91.40;;;;;;5093607;28;20106;-52
2021/06/07 03:38:29;;;;;;;3.75;3.65;;;19.40;90.40;;;;;;5093428;28;20024;-50
2021/06/07 03:40:57;;;;;;;4.07;3.90;;;19.30;90.30;;;;;;5093422;28;20024;-50
2021/06/07 03:43:29;;;;;;;4.25;4.03;;;19.30;90.10;;;;;;5093199;28;20527;-49
2021/06/07 03:45:57;;;;;;;3.40;3.30;;;19.30;90.20;;;;;;5093468;28;20086;-52
2021/06/07 03:48:25;;;;;;;3.75;3.55;;;19.30;89.40;;;;;;5093274;28;20020;-51
2021/06/07 03:50:53;;;;;;;3.50;3.30;;;19.10;87.80;;;;;;5093277;28;20035;-51
2021/06/07 03:53:21;;;;;;;3.10;3.00;;;19.00;89.70;;;;;;5093276;28;20028;-52
2021/06/07 03:55:48;;;;;;;3.28;3.08;;;19.10;88.60;;;;;;5093192;28;20020;-51
2021/06/07 03:58:16;;;;;;;3.13;3.03;;;19.00;89.70;;;;;;5093087;28;20024;-53
2021/06/07 04:00:43;;;;;;;4.20;4.00;;;19.10;88.10;;;;;;5093337;28;20028;-52
2021/06/07 04:03:12;;;;;;;3.60;3.50;;;19.30;89.50;;;;;;5093063;28;20115;-51
2021/06/07 04:05:40;;;;;;;3.80;3.50;;;19.30;86.10;;;;;;5093084;28;20030;-52
2021/06/07 04:08:09;;;;;;;3.70;3.50;;;19.20;85.40;;;;;;5092994;28;20023;-49
2021/06/07 04:10:38;;;;;;;3.63;3.50;;;19.10;86.50;;;;;;5093014;28;20032;-52
2021/06/07 04:13:06;;;;;;;3.60;3.50;;;19.00;86.20;;;;;;5092938;28;20047;-52
2021/06/07 04:15:33;;;;;;;3.35;3.22;;;18.90;84.00;;;;;;5092978;28;20392;-48
2021/06/07 04:18:01;;;;;;;3.30;3.20;;;18.90;84.20;;;;;;5093021;28;20031;-52
2021/06/07 04:20:31;;;;;;;3.38;3.28;;;19.00;86.90;;;;;;5092872;28;20370;-50
2021/06/07 04:22:58;;;;;;;3.33;3.20;;;19.10;85.50;;;;;;5092863;28;20020;-52
2021/06/07 04:25:27;;;;;;;4.25;3.95;;;19.20;88.80;;;;;;5093042;28;20499;-54
2021/06/07 04:27:57;;;;;;;4.30;4.10;;;19.20;95.60;;;;;;5095191;28;20048;-52
2021/06/07 04:30:26;;;;;;;4.73;4.50;;;19.20;97.30;;;;;;5097002;28;20107;-52
2021/06/07 04:32:55;;;;;;;4.22;4.03;;;19.10;97.80;;;;;;5096747;28;20024;-54
2021/06/07 04:35:24;;;;;;;4.80;4.40;;;19.10;97.70;;;;;;5096880;28;20028;-51
2021/06/07 04:37:55;;;;;;;5.07;4.68;;;19.00;98.00;;;;;;5095658;28;20026;-55
2021/06/07 04:40:28;;;;;;;5.00;4.70;;;18.90;98.70;;;;;;5097008;28;20129;-53
2021/06/07 04:42:57;;;;;;;5.05;4.75;;;18.90;99.20;;;;;;5096597;28;20073;-52
2021/06/07 04:45:26;;;;;;;5.50;5.20;;;18.70;99.40;;;;;;5096777;28;20430;-53
2021/06/07 04:47:54;;;;;;;5.07;4.68;;;18.70;99.90;;;;;;5096772;28;20465;-56
2021/06/07 04:50:23;;;;;;;4.90;4.50;;;18.60;99.90;;;;;;5096653;28;20019;-53
2021/06/07 04:53:02;;;;;;;4.60;4.30;;;18.50;99.90;;;;;;5096839;28;20024;-53
2021/06/07 04:55:33;;;;;;;4.68;4.28;;;18.40;99.90;;;;;;5096729;28;20160;-50
2021/06/07 04:58:03;;;;;;;4.70;4.40;;;18.40;99.90;;;;;;5096472;28;20520;-52
2021/06/07 05:00:31;;;;;;;5.57;5.10;;;18.40;99.90;;;;;;5096474;28;20031;-54
2021/06/07 05:02:59;;;;;;;5.70;5.10;;;18.30;99.90;;;;;;5096278;28;20137;-55
2021/06/07 05:05:27;;;;;;;5.50;5.10;;;18.20;99.90;;;;;;5096613;28;20019;-52
2021/06/07 05:07:54;;;;;;;5.95;5.40;;;18.10;99.90;;;;;;5096277;28;20016;-51
2021/06/07 05:10:22;;;;;;;6.07;5.50;;;18.00;99.90;;;;;;5096260;28;20365;-51
2021/06/07 05:12:49;;;;;;;5.07;4.88;;;17.90;99.90;;;;;;5096112;28;20495;-52
2021/06/07 05:15:17;;;;;;;5.97;5.68;;;17.80;99.90;;;;;;5096161;28;20481;-55
2021/06/07 05:17:45;;;;;;;5.70;5.35;;;17.80;99.90;;;;;;5096174;28;20469;-52
2021/06/07 05:20:16;;;;;;;5.80;5.40;;;17.70;99.90;;;;;;5096053;28;20446;-54
2021/06/07 05:22:43;;;;;;;5.82;5.53;;;17.70;99.90;;;;;;5096304;28;20031;-53
2021/06/07 05:25:11;;;;;;;5.90;5.50;;;17.60;99.90;;;;;;5094920;28;20028;-53
2021/06/07 05:27:39;;;;;;;5.43;5.10;;;17.60;99.90;;;;;;5095846;28;20031;-51
2021/06/07 05:30:07;;;;;;;6.00;5.60;;;17.60;99.90;;;;;;5095919;28;20019;-51
2021/06/07 05:32:35;;;;;;;5.15;4.80;;;17.60;99.90;;;;;;5095706;28;20020;-51
2021/06/07 05:35:04;;;;;;;9.35;5.97;;;17.60;99.90;;;;;;5096002;28;20028;-52
2021/06/07 05:37:32;;;;;;;5.10;4.80;;;17.50;99.90;;;;;;5095921;28;20025;-52
2021/06/07 05:39:59;;;;;;;5.53;5.22;;;17.40;99.90;;;;;;5094522;28;20051;-52
2021/06/07 05:42:27;;;;;;;5.90;5.38;;;17.40;99.90;;;;;;5095876;28;20020;-52
2021/06/07 05:44:55;;;;;;;5.90;5.50;;;17.30;99.90;;;;;;5095441;28;20040;-51
2021/06/07 05:47:22;;;;;;;6.07;5.68;;;17.30;99.90;;;;;;5095533;28;20016;-54
2021/06/07 05:49:50;;;;;;;6.40;5.80;;;17.20;99.90;;;;;;5095502;28;20020;-53
2021/06/07 05:52:17;;;;;;;5.80;5.25;;;17.20;99.90;;;;;;5094134;28;20016;-54
2021/06/07 05:54:44;;;;;;;6.00;5.60;;;17.10;99.90;;;;;;5095594;28;20107;-52
2021/06/07 05:57:12;;;;;;;6.15;5.75;;;17.00;99.90;;;;;;5095376;28;20366;-53
2021/06/07 05:59:39;;;;;;;5.97;5.57;;;16.90;99.90;;;;;;5095297;28;20473;-51
2021/06/07 06:02:11;;;;;;;6.25;5.78;;;16.90;99.90;;;;;;5095122;28;20393;-49
2021/06/07 06:04:40;;;;;;;6.70;6.20;;;16.80;99.90;;;;;;5095194;28;20035;-49
2021/06/07 06:07:08;;;;;;;6.45;6.03;;;16.60;99.90;;;;;;5093868;28;20051;-53
2021/06/07 06:09:36;;;;;;;6.90;6.40;;;16.50;99.90;;;;;;5095158;28;20477;-55
2021/06/07 06:12:04;;;;;;;6.35;6.00;;;16.50;99.90;;;;;;5095061;28;20016;-50
2021/06/07 06:14:31;;;;;;;6.70;6.05;;;16.40;99.90;;;;;;5093850;28;20107;-53
2021/06/07 06:16:59;;;;;;;6.50;6.10;;;16.30;99.90;;;;;;5095045;28;20031;-52
2021/06/07 06:19:26;;;;;;;6.38;5.88;;;16.20;99.90;;;;;;5093566;28;20039;-53
2021/06/07 06:21:53;;;;;;;7.28;6.70;;;16.10;99.90;;;;;;5094967;28;20036;-53
2021/06/07 06:24:21;;;;;;;7.78;7.13;;;16.00;99.90;;;;;;5094569;28;20027;-50
2021/06/07 06:26:48;;;;;;;8.07;7.57;;;15.80;99.90;;;;;;5094834;28;20016;-52
2021/06/07 06:29:15;;;;;;;7.25;6.85;;;15.70;99.90;;;;;;5094690;28;20042;-51
2021/06/07 06:31:43;;;;;;;7.60;7.10;;;15.60;99.90;;;;;;5094675;28;20024;-52
2021/06/07 06:34:10;;;;;;;7.47;7.18;;;15.50;99.90;;;;;;5093235;28;20020;-50
2021/06/07 06:36:38;;;;;;;7.68;7.18;;;15.30;99.90;;;;;;5094594;28;20476;-51
2021/06/07 06:39:06;;;;;;;8.20;7.60;;;15.20;99.90;;;;;;5094527;28;20106;-54
2021/06/07 06:41:36;;;;;;;8.00;7.50;;;15.10;99.90;;;;;;5094475;28;20030;-55
2021/06/07 06:44:04;;;;;;;8.27;7.57;;;15.00;99.90;;;;;;5094313;28;20047;-51
2021/06/07 06:46:32;;;;;;;8.20;7.68;;;14.90;99.90;;;;;;5094288;28;20110;-54
2021/06/07 06:49:02;;;;;;;8.95;8.35;;;14.80;99.90;;;;;;5092887;28;20020;-53
2021/06/07 06:51:29;;;;;;;8.90;8.40;;;14.70;99.90;;;;;;5093810;28;20024;-50
2021/06/07 06:53:57;;;;;;;8.27;7.70;;;14.60;99.90;;;;;;5094243;28;20020;-54
2021/06/07 06:56:24;;;;;;;8.38;7.72;;;14.60;99.90;;;;;;5094121;28;20020;-50
2021/06/07 06:58:52;;;;;;;8.93;8.18;;;14.50;99.90;;;;;;5094247;28;20046;-51
2021/06/07 07:01:19;;;;;;;9.38;8.80;;;14.30;99.90;;;;;;5093944;28;20073;-53
2021/06/07 07:03:47;;;;;;;10.30;9.48;;;14.30;99.90;;;;;;5092354;28;20096;-54
2021/06/07 07:06:15;;;;;;;10.90;10.10;;;14.20;99.90;;;;;;5093917;28;20020;-53
2021/06/07 07:08:43;;;;;;;10.95;10.18;;;14.10;99.90;;;;;;5093903;28;20099;-53
2021/06/07 07:11:11;;;;;;;10.43;9.93;;;14.00;99.90;;;;;;5094123;28;20081;-48
2021/06/07 07:13:41;;;;;;;10.90;10.40;;;14.00;99.90;;;;;;5093698;28;20051;-50
2021/06/07 07:16:08;;;;;;;11.60;10.93;;;13.90;99.90;;;;;;5094250;28;20108;-51
2021/06/07 07:18:36;;;;;;;10.75;10.25;;;13.80;99.90;;;;;;5093710;28;20035;-54
2021/06/07 07:21:04;;;;;;;11.48;10.98;;;13.80;99.90;;;;;;5092355;28;20032;-53
2021/06/07 07:23:33;;;;;;;15.80;11.30;;;13.70;99.90;;;;;;5093464;28;20388;-51
2021/06/07 07:26:02;;;;;;;12.85;12.15;;;13.70;99.90;;;;;;5093580;28;20024;-49
2021/06/07 07:28:29;;;;;;;12.80;12.20;;;13.70;99.90;;;;;;5093376;28;20107;-52
2021/06/07 07:30:57;;;;;;;13.18;12.20;;;13.60;99.90;;;;;;5091547;28;20521;-51
2021/06/07 07:33:24;;;;;;;12.93;12.30;;;13.50;99.90;;;;;;5093201;28;20016;-52
2021/06/07 07:35:52;;;;;;;13.30;12.48;;;13.50;99.90;;;;;;5092087;28;20024;-49
2021/06/07 07:38:19;;;;;;;14.50;13.60;;;13.50;99.90;;;;;;5093350;28;20465;-47
2021/06/07 07:40:47;;;;;;;14.63;13.73;;;13.40;99.90;;;;;;5093451;28;20028;-51
2021/06/07 07:43:15;;;;;;;14.52;13.73;;;13.30;99.90;;;;;;5093032;28;20127;-53
2021/06/07 07:45:43;;;;;;;15.25;14.35;;;13.30;99.90;;;;;;5093357;28;20031;-49
2021/06/07 07:48:10;;;;;;;15.38;14.48;;;13.20;99.90;;;;;;5093201;28;20064;-53
2021/06/07 07:50:38;;;;;;;16.27;15.27;;;13.10;99.90;;;;;;5093211;28;20113;-52
2021/06/07 07:53:05;;;;;;;16.00;15.00;;;13.10;99.90;;;;;;5093225;28;20046;-53
2021/06/07 07:55:34;;;;;;;15.30;14.20;;;13.10;99.90;;;;;;5093242;28;20397;-52
2021/06/07 07:58:04;;;;;;;16.67;15.80;;;13.10;99.90;;;;;;5093386;28;20031;-49
2021/06/07 08:00:32;;;;;;;17.17;16.17;;;13.00;99.90;;;;;;5093212;28;20032;-50
2021/06/07 08:03:00;;;;;;;18.50;17.30;;;13.00;99.90;;;;;;5092312;28;20024;-53
2021/06/07 08:05:28;;;;;;;18.83;17.73;;;13.00;99.90;;;;;;5092817;28;20020;-48
2021/06/07 08:07:56;;;;;;;18.77;17.77;;;13.00;99.90;;;;;;5092897;28;20100;-53
2021/06/07 08:10:23;;;;;;;18.40;17.40;;;13.00;99.90;;;;;;5092798;28;20447;-52
2021/06/07 08:12:51;;;;;;;18.92;17.73;;;13.00;99.90;;;;;;5093044;28;20044;-54
2021/06/07 08:15:18;;;;;;;19.30;18.20;;;12.90;99.90;;;;;;5092987;28;20101;-52
2021/06/07 08:17:46;;;;;;;20.70;19.25;;;13.00;99.90;;;;;;5093138;28;20108;-52
2021/06/07 08:20:17;;;;;;;20.10;19.00;;;12.90;99.90;;;;;;5092925;28;20031;-51
2021/06/07 08:22:50;;;;;;;20.55;19.35;;;12.90;99.90;;;;;;5092810;28;20085;-51
2021/06/07 08:25:21;;;;;;;20.92;19.52;;;12.90;99.90;;;;;;5092802;28;20086;-53
2021/06/07 08:27:50;;;;;;;20.52;19.52;;;12.80;99.90;;;;;;5092875;28;20044;-49
2021/06/07 08:30:19;;;;;;;20.17;18.98;;;12.70;99.90;;;;;;5092882;28;20053;-51
2021/06/07 08:32:47;;;;;;;21.73;20.58;;;12.70;99.90;;;;;;5092797;28;20066;-53
2021/06/07 08:35:15;;;;;;;21.85;20.45;;;12.60;99.90;;;;;;5092899;28;20024;-53
2021/06/07 08:37:42;;;;;;;21.95;20.75;;;12.60;99.90;;;;;;5092825;28;20491;-52
2021/06/07 08:40:12;;;;;;;22.10;20.73;;;12.50;99.90;;;;;;5092902;28;20100;-53
2021/06/07 08:42:43;;;;;;;21.27;20.08;;;12.50;99.90;;;;;;5092731;28;20435;-55
2021/06/07 08:45:15;;;;;;;21.80;20.52;;;12.40;99.90;;;;;;5092815;28;20037;-55
2021/06/07 08:47:44;;;;;;;22.58;21.27;;;12.40;99.90;;;;;;5092846;28;20024;-53
2021/06/07 08:50:13;;;;;;;23.23;21.83;;;12.40;99.90;;;;;;5092697;28;20107;-50
2021/06/07 08:52:43;;;;;;;23.50;22.10;;;12.40;99.90;;;;;;5092743;28;20047;-51
2021/06/07 08:55:14;;;;;;;23.52;22.15;;;12.30;99.90;;;;;;5092833;28;20017;-53
2021/06/07 08:57:46;;;;;;;25.20;23.67;;;12.30;99.90;;;;;;5091685;28;20101;-50
2021/06/07 09:00:18;;;;;;;23.65;22.25;;;12.30;99.90;;;;;;5092664;28;20016;-49
2021/06/07 09:02:47;;;;;;;24.77;23.38;;;12.30;99.90;;;;;;5092575;28;20542;-48
2021/06/07 09:05:16;;;;;;;26.35;24.85;;;12.30;99.90;;;;;;5092710;28;20056;-51
2021/06/07 09:07:56;;;;;;;25.80;24.10;;;12.30;99.90;;;;;;5092533;28;20050;-54
2021/06/07 09:10:26;;;;;;;25.38;24.00;;;12.30;99.90;;;;;;5092596;28;20028;-53
2021/06/07 09:13:00;;;;;;;24.60;23.40;;;12.30;99.90;;;;;;5092931;28;20478;-52
2021/06/07 09:15:35;;;;;;;24.65;23.30;;;12.20;99.90;;;;;;5096287;28;20024;-51
2021/06/07 09:18:05;;;;;;;24.58;23.27;;;12.10;99.90;;;;;;5096505;28;20082;-53
2021/06/07 09:20:34;;;;;;;24.75;23.50;;;12.10;99.90;;;;;;5096101;28;20020;-54
2021/06/07 09:23:07;;;;;;;26.25;24.92;;;12.10;99.90;;;;;;5094735;28;20028;-53
2021/06/07 09:25:40;;;;;;;25.75;24.42;;;12.10;99.90;;;;;;5096242;28;20024;-52
2021/06/07 09:28:13;;;;;;;27.48;25.30;;;12.10;99.90;;;;;;5096050;28;20095;-54
2021/06/07 09:31:03;;;;;;;25.85;24.35;;;12.00;99.90;;;;;;5094750;28;20388;-54
2021/06/07 09:33:57;;;;;;;25.80;24.48;;;11.90;99.90;;;;;;5095932;28;20024;-54
2021/06/07 09:36:33;;;;;;;26.63;25.17;;;11.90;99.90;;;;;;5093481;28;20064;-51
2021/06/07 09:39:26;;;;;;;26.80;25.30;;;11.90;99.90;;;;;;5095832;28;20026;-52
2021/06/07 09:42:01;;;;;;;26.60;25.15;;;11.80;99.90;;;;;;5095854;28;20550;-51
2021/06/07 09:44:39;;;;;;;26.70;25.20;;;11.70;99.90;;;;;;5095566;28;20051;-49
2021/06/07 09:47:33;;;;;;;27.35;25.90;;;11.70;99.90;;;;;;5095690;28;20391;-48
2021/06/07 09:50:04;;;;;;;27.33;25.98;;;11.60;99.90;;;;;;5091203;28;20124;-54
2021/06/07 09:52:45;;;;;;;28.45;27.05;;;11.60;99.90;;;;;;5095507;28;20062;-48
2021/06/07 09:55:24;;;;;;;28.30;26.80;;;11.50;99.90;;;;;;5095438;28;20086;-52
2021/06/07 09:57:56;;;;;;;29.73;28.15;;;11.50;99.90;;;;;;5095472;28;20024;-55
2021/06/07 10:00:36;;;;;;;29.70;28.10;;;11.50;99.90;;;;;;5095241;28;20024;-51
2021/06/07 10:03:25;;;;;;;29.20;27.63;;;11.40;99.90;;;;;;5095490;28;20024;-55
2021/06/07 10:06:18;;;;;;;31.10;29.40;;;11.40;99.90;;;;;;5095281;28;20492;-53
2021/06/07 10:08:52;;;;;;;29.33;27.65;;;11.40;99.90;;;;;;5095086;28;20023;-52
2021/06/07 10:11:22;;;;;;;29.00;27.40;;;11.40;99.90;;;;;;5094945;28;20028;-50
2021/06/07 10:13:51;;;;;;;29.85;28.05;;;11.30;99.90;;;;;;5095017;28;20074;-53
2021/06/07 10:16:20;;;;;;;29.23;27.52;;;11.30;99.90;;;;;;5094870;28;20020;-52
2021/06/07 10:18:47;;;;;;;29.10;27.40;;;11.30;99.90;;;;;;5094932;28;20024;-52
2021/06/07 10:21:15;;;;;;;29.00;27.40;;;11.20;99.90;;;;;;5094807;28;20016;-53
2021/06/07 10:23:42;;;;;;;29.67;27.65;;;11.30;99.90;;;;;;5094771;28;20120;-53
2021/06/07 10:26:09;;;;;;;27.90;26.30;;;11.30;99.90;;;;;;5094189;28;20392;-53
2021/06/07 10:28:46;;;;;;;29.08;27.58;;;11.30;99.90;;;;;;5094696;28;20016;-51
2021/06/07 10:31:17;;;;;;;29.83;28.20;;;11.20;99.90;;;;;;5094721;28;20358;-49
2021/06/07 10:33:56;;;;;;;27.95;26.45;;;11.20;99.90;;;;;;5094644;28;20103;-48
2021/06/07 10:36:24;;;;;;;27.30;25.80;;;11.10;99.90;;;;;;5094631;28;20424;-50
2021/06/07 10:38:53;;;;;;;28.27;26.80;;;11.20;99.90;;;;;;5094589;28;20546;-51
2021/06/07 10:41:26;;;;;;;28.35;26.70;;;11.10;99.90;;;;;;5094638;28;20050;-51
2021/06/07 10:43:59;;;;;;;28.70;27.20;;;11.20;99.90;;;;;;5093086;28;20499;-52
2021/06/07 10:46:35;;;;;;;27.30;26.00;;;11.20;99.90;;;;;;5094522;28;20095;-51
2021/06/07 10:49:24;;;;;;;26.42;25.13;;;11.20;99.90;;;;;;5094351;28;20051;-54
2021/06/07 10:52:08;;;;;;;26.08;24.85;;;11.20;99.90;;;;;;5093995;28;20542;-51
2021/06/07 10:54:39;;;;;;;25.35;24.00;;;11.20;99.90;;;;;;5094122;28;20524;-50
2021/06/07 10:57:28;;;;;;;23.45;22.35;;;11.20;99.90;;;;;;5094356;28;20051;-54
2021/06/07 11:00:04;;;;;;;21.70;20.58;;;11.30;99.90;;;;;;5092776;28;20459;-52
2021/06/07 11:02:38;;;;;;;20.25;19.35;;;11.40;99.90;;;;;;5094213;28;20099;-49
2021/06/07 11:05:12;;;;;;;19.45;18.55;;;11.60;99.90;;;;;;5094175;28;20081;-50
2021/06/07 11:07:43;;;;;;;18.58;17.77;;;11.60;99.90;;;;;;5093876;28;20021;-55
2021/06/07 11:10:21;;;;;;;17.67;16.73;;;11.60;99.90;;;;;;5093918;28;20451;-51
2021/06/07 11:12:53;;;;;;;16.58;15.80;;;11.70;99.90;;;;;;5093906;28;20023;-53
2021/06/07 11:15:30;;;;;;;15.20;14.50;;;11.80;99.90;;;;;;5093924;28;20081;-46
2021/06/07 11:18:21;;;;;;;14.40;13.60;;;12.00;99.90;;;;;;5092709;28;20020;-49
2021/06/07 11:21:00;;;;;;;13.27;12.68;;;12.00;99.90;;;;;;5093665;28;20051;-49
2021/06/07 11:23:39;;;;;;;12.40;11.80;;;12.10;99.90;;;;;;5093844;28;20032;-53
2021/06/07 11:26:09;;;;;;;12.88;12.27;;;12.20;99.90;;;;;;5093596;28;20534;-54
2021/06/07 11:28:45;;;;;;;12.00;11.60;;;12.10;99.90;;;;;;5093547;28;20381;-52
2021/06/07 11:31:21;;;;;;;11.32;10.82;;;12.20;99.90;;;;;;5093602;28;20290;-51
2021/06/07 11:33:59;;;;;;;12.45;11.82;;;12.30;99.90;;;;;;5093477;28;20052;-54
2021/06/07 11:36:49;;;;;;;11.63;11.10;;;12.20;99.90;;;;;;5092875;28;20020;-53
2021/06/07 11:39:28;;;;;;;10.82;10.43;;;12.20;99.90;;;;;;5093458;28;20076;-52
2021/06/07 11:41:59;;;;;;;10.85;10.35;;;12.30;99.90;;;;;;5092109;28;20134;-51
2021/06/07 11:44:44;;;;;;;10.65;10.25;;;12.30;99.90;;;;;;5093057;28;20051;-52
2021/06/07 11:47:14;;;;;;;10.07;9.68;;;12.30;99.90;;;;;;5093389;28;20028;-54
2021/06/07 11:50:11;;;;;;;10.50;10.00;;;12.40;99.90;;;;;;5093319;28;20077;-53
2021/06/07 11:52:52;;;;;;;9.70;9.30;;;12.40;99.90;;;;;;5084457;28;20090;-56
2021/06/07 11:55:18;;;;;;;;;;;12.40;99.90;;;;;;5093681;28;20465;-51
2021/06/07 11:57:47;;;;;;;9.20;8.80;;;12.40;99.90;;;;;;5093169;28;19904;-53
2021/06/07 12:00:16;;;;;;;9.60;9.20;;;12.40;99.90;;;;;;5093147;28;20036;-53
2021/06/07 12:02:44;;;;;;;9.65;9.25;;;12.30;99.90;;;;;;5092890;28;20012;-50
2021/06/07 12:05:14;;;;;;;9.43;8.93;;;12.20;99.90;;;;;;5093037;28;20057;-52
2021/06/07 12:07:45;;;;;;;9.07;8.77;;;12.10;99.90;;;;;;5093175;28;20020;-51
2021/06/07 12:10:18;;;;;;;9.65;9.10;;;12.00;99.90;;;;;;5093166;28;20147;-50
2021/06/07 12:12:46;;;;;;;9.20;8.80;;;12.10;99.90;;;;;;5093243;28;20020;-49
2021/06/07 12:15:15;;;;;;;8.90;8.40;;;12.10;99.90;;;;;;5093160;28;20377;-52
2021/06/07 12:17:59;;;;;;;8.52;8.23;;;12.00;99.90;;;;;;5093026;28;20020;-49
2021/06/07 12:20:26;;;;;;;8.80;8.32;;;11.90;99.90;;;;;;5092941;28;20103;-51
2021/06/07 12:22:57;;;;;;;8.60;8.30;;;12.00;99.90;;;;;;5093098;28;20024;-47
2021/06/07 12:25:32;;;;;;;9.55;9.00;;;12.00;99.90;;;;;;5093046;28;20032;-52
2021/06/07 12:28:23;;;;;;;8.43;8.02;;;11.90;99.90;;;;;;5092947;28;20047;-48
2021/06/07 12:30:52;;;;;;;8.10;7.78;;;11.90;99.90;;;;;;5092995;28;20024;-52
2021/06/07 12:33:34;;;;;;;7.95;7.55;;;11.90;99.90;;;;;;5093145;28;20051;-52
2021/06/07 12:36:03;;;;;;;8.18;7.78;;;12.00;99.90;;;;;;5092941;28;20016;-53
2021/06/07 12:38:31;;;;;;;8.82;8.48;;;12.10;99.90;;;;;;5092984;28;20488;-49
2021/06/07 12:41:00;;;;;;;8.70;8.30;;;12.10;99.90;;;;;;5092937;28;20031;-48
2021/06/07 12:43:32;;;;;;;8.80;8.40;;;12.10;99.90;;;;;;5092603;28;20048;-52
2021/06/07 12:46:07;;;;;;;9.30;8.80;;;12.00;99.90;;;;;;5092953;28;20012;-51
2021/06/07 12:48:41;;;;;;;9.13;8.68;;;12.10;99.90;;;;;;5094711;28;20024;-51
2021/06/07 12:51:15;;;;;;;9.30;8.90;;;12.00;99.90;;;;;;5096890;28;20099;-50
2021/06/07 12:53:49;;;;;;;9.18;8.77;;;12.00;99.90;;;;;;5096680;28;20076;-52
2021/06/07 12:56:20;;;;;;;8.73;8.02;;;12.00;99.90;;;;;;5096682;28;20110;-54